sensor_id;sensor_type;location;lat;lon;timestamp;temperature;humidity
4759;DHT22;2393;50.560;12.636;2023-09-19T00:00:44;16.60;99.90
4759;DHT22;2393;50.560;12.636;2023-09-19T00:03:15;16.50;99.90
4759;DHT22;2393;50.560;12.636;2023-09-19T00:05:44;16.50;99.90
4759;DHT22;2393;50.560;12.636;2023-09-19T00:08:13;16.50;99.90
4759;DHT22;2393;50.560;12.636;2023-09-19T00:10:44;16.50;99.90
4759;DHT22;2393;50.560;12.636;2023-09-19T00:13:12;16.50;99.90
4759;DHT22;2393;50.560;12.636;2023-09-19T00:15:44;16.50;99.90
4759;DHT22;2393;50.560;12.636;2023-09-19T00:18:17;16.50;99.90
4759;DHT22;2393;50.560;12.636;2023-09-19T00:20:50;16.50;99.90
4759;DHT22;2393;50.560;12.636;2023-09-19T00:23:19;16.50;99.90
4759;DHT22;2393;50.560;12.636;2023-09-19T00:25:50;16.50;99.90
4759;DHT22;2393;50.560;12.636;2023-09-19T00:28:18;16.50;99.90
4759;DHT22;2393;50.560;12.636;2023-09-19T00:30:48;16.50;99.90
4759;DHT22;2393;50.560;12.636;2023-09-19T00:33:18;16.50;99.90
4759;DHT22;2393;50.560;12.636;2023-09-19T00:35:48;16.50;99.90
4759;DHT22;2393;50.560;12.636;2023-09-19T00:38:16;16.50;99.90
4759;DHT22;2393;50.560;12.636;2023-09-19T00:40:50;16.50;99.90
4759;DHT22;2393;50.560;12.636;2023-09-19T00:43:19;16.40;99.90
4759;DHT22;2393;50.560;12.636;2023-09-19T00:45:50;16.40;99.90
4759;DHT22;2393;50.560;12.636;2023-09-19T00:48:20;16.50;99.90
4759;DHT22;2393;50.560;12.636;2023-09-19T00:50:50;16.50;99.90
4759;DHT22;2393;50.560;12.636;2023-09-19T00:53:21;16.40;99.90
4759;DHT22;2393;50.560;12.636;2023-09-19T00:55:55;16.40;99.90
4759;DHT22;2393;50.560;12.636;2023-09-19T00:58:24;16.40;99.90
4759;DHT22;2393;50.560;12.636;2023-09-19T01:00:53;16.40;99.90
4759;DHT22;2393;50.560;12.636;2023-09-19T01:03:23;16.40;99.90
4759;DHT22;2393;50.560;12.636;2023-09-19T01:05:52;16.40;99.90
4759;DHT22;2393;50.560;12.636;2023-09-19T01:08:21;16.40;99.90
4759;DHT22;2393;50.560;12.636;2023-09-19T01:10:52;16.40;99.90
4759;DHT22;2393;50.560;12.636;2023-09-19T01:13:29;16.40;99.90
4759;DHT22;2393;50.560;12.636;2023-09-19T01:16:03;16.40;99.90
4759;DHT22;2393;50.560;12.636;2023-09-19T01:18:43;16.40;99.90
4759;DHT22;2393;50.560;12.636;2023-09-19T01:21:20;16.40;99.90
4759;DHT22;2393;50.560;12.636;2023-09-19T01:24:10;16.30;99.90
4759;DHT22;2393;50.560;12.636;2023-09-19T01:27:02;16.30;99.90
4759;DHT22;2393;50.560;12.636;2023-09-19T01:29:39;16.30;99.90
4759;DHT22;2393;50.560;12.636;2023-09-19T01:32:11;16.30;99.90
4759;DHT22;2393;50.560;12.636;2023-09-19T01:34:46;16.30;99.90
4759;DHT22;2393;50.560;12.636;2023-09-19T01:37:16;16.30;99.90
4759;DHT22;2393;50.560;12.636;2023-09-19T01:39:49;16.30;99.90
4759;DHT22;2393;50.560;12.636;2023-09-19T01:42:28;16.20;99.90
4759;DHT22;2393;50.560;12.636;2023-09-19T01:45:03;16.20;99.90
4759;DHT22;2393;50.560;12.636;2023-09-19T01:47:41;16.20;99.90
4759;DHT22;2393;50.560;12.636;2023-09-19T01:50:20;16.20;99.90
4759;DHT22;2393;50.560;12.636;2023-09-19T01:52:57;16.20;99.90
4759;DHT22;2393;50.560;12.636;2023-09-19T01:55:29;16.20;99.90
4759;DHT22;2393;50.560;12.636;2023-09-19T01:58:04;16.20;99.90
4759;DHT22;2393;50.560;12.636;2023-09-19T02:00:36;16.20;99.90
4759;DHT22;2393;50.560;12.636;2023-09-19T02:03:08;16.20;99.90
4759;DHT22;2393;50.560;12.636;2023-09-19T02:05:37;16.10;99.90
4759;DHT22;2393;50.560;12.636;2023-09-19T02:08:06;16.20;99.90
4759;DHT22;2393;50.560;12.636;2023-09-19T02:10:35;16.20;99.90
4759;DHT22;2393;50.560;12.636;2023-09-19T02:13:03;16.20;99.90
4759;DHT22;2393;50.560;12.636;2023-09-19T02:15:33;16.20;99.90
4759;DHT22;2393;50.560;12.636;2023-09-19T02:18:01;16.20;99.90
4759;DHT22;2393;50.560;12.636;2023-09-19T02:20:32;16.10;99.90
4759;DHT22;2393;50.560;12.636;2023-09-19T02:23:00;16.20;99.90
4759;DHT22;2393;50.560;12.636;2023-09-19T02:25:29;16.10;99.90
4759;DHT22;2393;50.560;12.636;2023-09-19T02:28:00;16.20;99.90
4759;DHT22;2393;50.560;12.636;2023-09-19T02:30:30;16.20;99.90
4759;DHT22;2393;50.560;12.636;2023-09-19T02:32:58;16.20;99.90
4759;DHT22;2393;50.560;12.636;2023-09-19T02:35:29;16.10;99.90
4759;DHT22;2393;50.560;12.636;2023-09-19T02:38:03;16.20;99.90
4759;DHT22;2393;50.560;12.636;2023-09-19T02:40:34;16.10;99.90
4759;DHT22;2393;50.560;12.636;2023-09-19T02:43:04;16.10;99.90
4759;DHT22;2393;50.560;12.636;2023-09-19T02:45:34;16.20;99.90
4759;DHT22;2393;50.560;12.636;2023-09-19T02:48:03;16.10;99.90
4759;DHT22;2393;50.560;12.636;2023-09-19T02:50:31;16.10;99.90
4759;DHT22;2393;50.560;12.636;2023-09-19T02:53:02;16.20;99.90
4759;DHT22;2393;50.560;12.636;2023-09-19T02:55:32;16.20;99.90
4759;DHT22;2393;50.560;12.636;2023-09-19T02:58:01;16.20;99.90
4759;DHT22;2393;50.560;12.636;2023-09-19T03:00:32;16.20;99.90
4759;DHT22;2393;50.560;12.636;2023-09-19T03:03:01;16.20;99.90
4759;DHT22;2393;50.560;12.636;2023-09-19T03:05:31;16.20;99.90
4759;DHT22;2393;50.560;12.636;2023-09-19T03:08:00;16.10;99.90
4759;DHT22;2393;50.560;12.636;2023-09-19T03:10:31;16.10;99.90
4759;DHT22;2393;50.560;12.636;2023-09-19T03:13:20;16.10;99.90
4759;DHT22;2393;50.560;12.636;2023-09-19T03:15:48;16.00;99.90
4759;DHT22;2393;50.560;12.636;2023-09-19T03:18:22;16.00;99.90
4759;DHT22;2393;50.560;12.636;2023-09-19T03:20:53;16.00;99.90
4759;DHT22;2393;50.560;12.636;2023-09-19T03:23:23;16.00;99.90
4759;DHT22;2393;50.560;12.636;2023-09-19T03:25:55;16.00;99.90
4759;DHT22;2393;50.560;12.636;2023-09-19T03:28:24;16.00;99.90
4759;DHT22;2393;50.560;12.636;2023-09-19T03:30:59;16.00;99.90
4759;DHT22;2393;50.560;12.636;2023-09-19T03:33:30;16.00;99.90
4759;DHT22;2393;50.560;12.636;2023-09-19T03:36:02;16.00;99.90
4759;DHT22;2393;50.560;12.636;2023-09-19T03:38:33;15.90;99.90
4759;DHT22;2393;50.560;12.636;2023-09-19T03:41:03;15.90;99.90
4759;DHT22;2393;50.560;12.636;2023-09-19T03:43:35;15.90;99.90
4759;DHT22;2393;50.560;12.636;2023-09-19T03:46:04;15.80;99.90
4759;DHT22;2393;50.560;12.636;2023-09-19T03:48:34;15.90;99.90
4759;DHT22;2393;50.560;12.636;2023-09-19T03:51:03;15.90;99.90
4759;DHT22;2393;50.560;12.636;2023-09-19T03:53:32;15.90;99.90
4759;DHT22;2393;50.560;12.636;2023-09-19T03:56:00;15.80;99.90
4759;DHT22;2393;50.560;12.636;2023-09-19T03:58:33;15.80;99.90
4759;DHT22;2393;50.560;12.636;2023-09-19T04:01:06;15.80;99.90
4759;DHT22;2393;50.560;12.636;2023-09-19T04:03:35;15.80;99.90
4759;DHT22;2393;50.560;12.636;2023-09-19T04:06:14;15.70;99.90
4759;DHT22;2393;50.560;12.636;2023-09-19T04:08:43;15.80;99.90
4759;DHT22;2393;50.560;12.636;2023-09-19T04:11:13;15.80;99.90
4759;DHT22;2393;50.560;12.636;2023-09-19T04:13:43;15.70;99.90
4759;DHT22;2393;50.560;12.636;2023-09-19T04:16:13;15.70;99.90
4759;DHT22;2393;50.560;12.636;2023-09-19T04:18:42;15.80;99.90
4759;DHT22;2393;50.560;12.636;2023-09-19T04:21:10;15.80;99.90
4759;DHT22;2393;50.560;12.636;2023-09-19T04:23:39;15.80;99.90
4759;DHT22;2393;50.560;12.636;2023-09-19T04:26:08;15.80;99.90
4759;DHT22;2393;50.560;12.636;2023-09-19T04:28:36;15.80;99.90
4759;DHT22;2393;50.560;12.636;2023-09-19T04:31:08;15.80;99.90
4759;DHT22;2393;50.560;12.636;2023-09-19T04:33:37;15.80;99.90
4759;DHT22;2393;50.560;12.636;2023-09-19T04:36:07;15.80;99.90
4759;DHT22;2393;50.560;12.636;2023-09-19T04:38:57;15.80;99.90
4759;DHT22;2393;50.560;12.636;2023-09-19T04:41:25;15.80;99.90
4759;DHT22;2393;50.560;12.636;2023-09-19T04:43:53;15.90;99.90
4759;DHT22;2393;50.560;12.636;2023-09-19T04:46:24;15.90;99.90
4759;DHT22;2393;50.560;12.636;2023-09-19T04:48:52;15.90;99.90
4759;DHT22;2393;50.560;12.636;2023-09-19T04:51:21;16.00;99.90
4759;DHT22;2393;50.560;12.636;2023-09-19T04:53:50;16.00;99.90
4759;DHT22;2393;50.560;12.636;2023-09-19T04:56:19;16.10;99.90
4759;DHT22;2393;50.560;12.636;2023-09-19T04:58:48;16.10;99.90
4759;DHT22;2393;50.560;12.636;2023-09-19T05:01:16;16.10;99.90
4759;DHT22;2393;50.560;12.636;2023-09-19T05:03:46;16.10;99.90
4759;DHT22;2393;50.560;12.636;2023-09-19T05:06:19;16.10;99.90
4759;DHT22;2393;50.560;12.636;2023-09-19T05:08:48;16.20;99.90
4759;DHT22;2393;50.560;12.636;2023-09-19T05:11:18;16.20;99.90
4759;DHT22;2393;50.560;12.636;2023-09-19T05:13:48;16.10;99.90
4759;DHT22;2393;50.560;12.636;2023-09-19T05:16:17;16.10;99.90
4759;DHT22;2393;50.560;12.636;2023-09-19T05:18:47;16.20;99.90
4759;DHT22;2393;50.560;12.636;2023-09-19T05:21:16;16.20;99.90
4759;DHT22;2393;50.560;12.636;2023-09-19T05:23:45;16.20;99.90
4759;DHT22;2393;50.560;12.636;2023-09-19T05:26:14;16.30;99.90
4759;DHT22;2393;50.560;12.636;2023-09-19T05:28:43;16.30;99.90
4759;DHT22;2393;50.560;12.636;2023-09-19T05:31:12;16.30;99.90
4759;DHT22;2393;50.560;12.636;2023-09-19T05:33:41;16.40;99.90
4759;DHT22;2393;50.560;12.636;2023-09-19T05:36:12;16.40;99.90
4759;DHT22;2393;50.560;12.636;2023-09-19T05:38:40;16.30;99.90
4759;DHT22;2393;50.560;12.636;2023-09-19T05:41:09;16.30;99.90
4759;DHT22;2393;50.560;12.636;2023-09-19T05:43:41;16.30;99.90
4759;DHT22;2393;50.560;12.636;2023-09-19T05:46:10;16.30;99.90
4759;DHT22;2393;50.560;12.636;2023-09-19T05:48:39;16.40;99.90
4759;DHT22;2393;50.560;12.636;2023-09-19T05:51:08;16.40;99.90
4759;DHT22;2393;50.560;12.636;2023-09-19T05:53:38;16.60;99.90
4759;DHT22;2393;50.560;12.636;2023-09-19T05:56:10;16.80;99.90
4759;DHT22;2393;50.560;12.636;2023-09-19T05:58:41;16.90;99.90
4759;DHT22;2393;50.560;12.636;2023-09-19T06:01:11;16.90;99.90
4759;DHT22;2393;50.560;12.636;2023-09-19T06:03:40;16.90;99.90
4759;DHT22;2393;50.560;12.636;2023-09-19T06:06:09;16.90;99.90
4759;DHT22;2393;50.560;12.636;2023-09-19T06:08:39;17.30;99.90
4759;DHT22;2393;50.560;12.636;2023-09-19T06:11:07;17.70;99.90
4759;DHT22;2393;50.560;12.636;2023-09-19T06:13:36;18.20;99.90
4759;DHT22;2393;50.560;12.636;2023-09-19T06:16:06;18.80;99.90
4759;DHT22;2393;50.560;12.636;2023-09-19T06:18:36;18.90;99.90
4759;DHT22;2393;50.560;12.636;2023-09-19T06:21:06;19.00;99.90
4759;DHT22;2393;50.560;12.636;2023-09-19T06:23:34;19.10;99.90
4759;DHT22;2393;50.560;12.636;2023-09-19T06:26:05;19.10;99.90
4759;DHT22;2393;50.560;12.636;2023-09-19T06:28:35;19.30;99.90
4759;DHT22;2393;50.560;12.636;2023-09-19T06:31:04;19.60;99.90
4759;DHT22;2393;50.560;12.636;2023-09-19T06:33:37;19.70;99.90
4759;DHT22;2393;50.560;12.636;2023-09-19T06:36:07;19.50;99.90
4759;DHT22;2393;50.560;12.636;2023-09-19T06:38:35;19.30;99.90
4759;DHT22;2393;50.560;12.636;2023-09-19T06:41:07;19.10;99.90
4759;DHT22;2393;50.560;12.636;2023-09-19T06:43:37;18.90;99.90
4759;DHT22;2393;50.560;12.636;2023-09-19T06:46:07;18.70;99.90
4759;DHT22;2393;50.560;12.636;2023-09-19T06:48:35;18.50;99.90
4759;DHT22;2393;50.560;12.636;2023-09-19T06:51:03;18.40;99.90
4759;DHT22;2393;50.560;12.636;2023-09-19T06:53:33;18.20;99.90
4759;DHT22;2393;50.560;12.636;2023-09-19T06:56:03;18.20;99.90
4759;DHT22;2393;50.560;12.636;2023-09-19T06:58:33;18.10;99.90
4759;DHT22;2393;50.560;12.636;2023-09-19T07:01:04;18.10;99.90
4759;DHT22;2393;50.560;12.636;2023-09-19T07:03:32;18.10;99.90
4759;DHT22;2393;50.560;12.636;2023-09-19T07:06:01;18.10;99.90
4759;DHT22;2393;50.560;12.636;2023-09-19T07:08:31;18.10;99.90
4759;DHT22;2393;50.560;12.636;2023-09-19T07:11:00;17.90;99.90
4759;DHT22;2393;50.560;12.636;2023-09-19T07:13:29;17.80;99.90
4759;DHT22;2393;50.560;12.636;2023-09-19T07:15:59;17.80;99.90
4759;DHT22;2393;50.560;12.636;2023-09-19T07:18:27;17.80;99.90
4759;DHT22;2393;50.560;12.636;2023-09-19T07:20:57;17.70;99.90
4759;DHT22;2393;50.560;12.636;2023-09-19T07:23:28;17.80;99.90
4759;DHT22;2393;50.560;12.636;2023-09-19T07:25:57;17.80;99.90
4759;DHT22;2393;50.560;12.636;2023-09-19T07:28:27;17.80;99.90
4759;DHT22;2393;50.560;12.636;2023-09-19T07:30:55;17.80;99.90
4759;DHT22;2393;50.560;12.636;2023-09-19T07:33:26;17.80;99.90
4759;DHT22;2393;50.560;12.636;2023-09-19T07:35:55;18.00;99.90
4759;DHT22;2393;50.560;12.636;2023-09-19T07:38:27;18.40;99.90
4759;DHT22;2393;50.560;12.636;2023-09-19T07:41:00;19.10;99.90
4759;DHT22;2393;50.560;12.636;2023-09-19T07:43:29;19.90;99.90
4759;DHT22;2393;50.560;12.636;2023-09-19T07:46:03;20.40;99.90
4759;DHT22;2393;50.560;12.636;2023-09-19T07:48:35;20.80;99.90
4759;DHT22;2393;50.560;12.636;2023-09-19T07:51:05;21.10;99.90
4759;DHT22;2393;50.560;12.636;2023-09-19T07:53:34;21.40;99.90
4759;DHT22;2393;50.560;12.636;2023-09-19T07:56:04;21.60;99.90
4759;DHT22;2393;50.560;12.636;2023-09-19T07:58:34;21.90;99.90
4759;DHT22;2393;50.560;12.636;2023-09-19T08:01:04;22.10;99.90
4759;DHT22;2393;50.560;12.636;2023-09-19T08:03:35;22.00;99.90
4759;DHT22;2393;50.560;12.636;2023-09-19T08:06:08;21.80;99.90
4759;DHT22;2393;50.560;12.636;2023-09-19T08:08:37;21.70;99.90
4759;DHT22;2393;50.560;12.636;2023-09-19T08:11:06;21.90;99.90
4759;DHT22;2393;50.560;12.636;2023-09-19T08:13:39;22.00;99.90
4759;DHT22;2393;50.560;12.636;2023-09-19T08:16:11;22.20;99.90
4759;DHT22;2393;50.560;12.636;2023-09-19T08:18:47;22.30;99.90
4759;DHT22;2393;50.560;12.636;2023-09-19T08:21:16;22.20;99.90
4759;DHT22;2393;50.560;12.636;2023-09-19T08:23:44;22.00;99.90
4759;DHT22;2393;50.560;12.636;2023-09-19T08:26:13;21.80;99.90
4759;DHT22;2393;50.560;12.636;2023-09-19T08:28:42;21.50;99.90
4759;DHT22;2393;50.560;12.636;2023-09-19T08:31:11;21.50;99.90
4759;DHT22;2393;50.560;12.636;2023-09-19T08:33:39;21.50;99.90
4759;DHT22;2393;50.560;12.636;2023-09-19T08:36:10;21.40;99.90
4759;DHT22;2393;50.560;12.636;2023-09-19T08:38:42;21.20;99.90
4759;DHT22;2393;50.560;12.636;2023-09-19T08:41:10;20.70;99.90
4759;DHT22;2393;50.560;12.636;2023-09-19T08:43:39;20.50;99.90
4759;DHT22;2393;50.560;12.636;2023-09-19T08:46:11;20.40;99.90
4759;DHT22;2393;50.560;12.636;2023-09-19T08:48:45;20.60;99.90
4759;DHT22;2393;50.560;12.636;2023-09-19T08:51:21;21.00;99.90
4759;DHT22;2393;50.560;12.636;2023-09-19T08:53:58;21.10;99.90
4759;DHT22;2393;50.560;12.636;2023-09-19T08:56:32;21.20;99.90
4759;DHT22;2393;50.560;12.636;2023-09-19T08:59:03;21.30;99.90
4759;DHT22;2393;50.560;12.636;2023-09-19T09:01:32;21.50;99.90
4759;DHT22;2393;50.560;12.636;2023-09-19T09:04:02;21.70;99.90
4759;DHT22;2393;50.560;12.636;2023-09-19T09:06:32;21.70;99.90
4759;DHT22;2393;50.560;12.636;2023-09-19T09:09:03;21.40;99.90
4759;DHT22;2393;50.560;12.636;2023-09-19T09:11:33;21.00;99.90
4759;DHT22;2393;50.560;12.636;2023-09-19T09:14:01;20.80;99.90
4759;DHT22;2393;50.560;12.636;2023-09-19T09:16:30;20.60;99.90
4759;DHT22;2393;50.560;12.636;2023-09-19T09:18:59;20.50;99.90
4759;DHT22;2393;50.560;12.636;2023-09-19T09:21:28;20.40;99.90
4759;DHT22;2393;50.560;12.636;2023-09-19T09:23:58;20.50;99.90
4759;DHT22;2393;50.560;12.636;2023-09-19T09:26:42;20.70;99.90
4759;DHT22;2393;50.560;12.636;2023-09-19T09:29:12;21.10;99.90
4759;DHT22;2393;50.560;12.636;2023-09-19T09:31:46;21.30;99.90
4759;DHT22;2393;50.560;12.636;2023-09-19T09:34:16;21.10;99.90
4759;DHT22;2393;50.560;12.636;2023-09-19T09:36:48;21.00;99.90
4759;DHT22;2393;50.560;12.636;2023-09-19T09:39:31;21.00;99.90
4759;DHT22;2393;50.560;12.636;2023-09-19T09:42:02;20.80;99.90
4759;DHT22;2393;50.560;12.636;2023-09-19T09:44:33;20.60;99.90
4759;DHT22;2393;50.560;12.636;2023-09-19T09:47:02;20.50;99.90
4759;DHT22;2393;50.560;12.636;2023-09-19T09:49:54;20.40;99.90
4759;DHT22;2393;50.560;12.636;2023-09-19T09:52:44;20.30;99.90
4759;DHT22;2393;50.560;12.636;2023-09-19T09:55:14;20.30;99.90
4759;DHT22;2393;50.560;12.636;2023-09-19T09:57:43;20.30;99.90
4759;DHT22;2393;50.560;12.636;2023-09-19T10:00:12;20.30;99.90
4759;DHT22;2393;50.560;12.636;2023-09-19T10:02:48;20.40;99.90
4759;DHT22;2393;50.560;12.636;2023-09-19T10:05:17;20.40;99.90
4759;DHT22;2393;50.560;12.636;2023-09-19T10:07:51;20.40;99.90
4759;DHT22;2393;50.560;12.636;2023-09-19T10:10:33;20.30;99.90
4759;DHT22;2393;50.560;12.636;2023-09-19T10:13:14;20.20;99.90
4759;DHT22;2393;50.560;12.636;2023-09-19T10:15:50;20.30;99.90
4759;DHT22;2393;50.560;12.636;2023-09-19T10:18:21;20.40;99.90
4759;DHT22;2393;50.560;12.636;2023-09-19T10:20:51;20.60;99.90
4759;DHT22;2393;50.560;12.636;2023-09-19T10:23:20;20.90;99.90
4759;DHT22;2393;50.560;12.636;2023-09-19T10:25:52;21.30;99.90
4759;DHT22;2393;50.560;12.636;2023-09-19T10:28:22;21.40;99.90
4759;DHT22;2393;50.560;12.636;2023-09-19T10:30:51;21.30;99.90
4759;DHT22;2393;50.560;12.636;2023-09-19T10:33:22;21.10;99.90
4759;DHT22;2393;50.560;12.636;2023-09-19T10:35:54;21.00;99.90
4759;DHT22;2393;50.560;12.636;2023-09-19T10:38:25;21.10;99.90
4759;DHT22;2393;50.560;12.636;2023-09-19T10:40:57;21.10;99.90
4759;DHT22;2393;50.560;12.636;2023-09-19T10:43:30;20.90;99.90
4759;DHT22;2393;50.560;12.636;2023-09-19T10:46:06;20.80;99.90
4759;DHT22;2393;50.560;12.636;2023-09-19T10:48:38;20.70;99.90
4759;DHT22;2393;50.560;12.636;2023-09-19T10:51:10;20.60;99.90
4759;DHT22;2393;50.560;12.636;2023-09-19T10:53:43;20.60;99.90
4759;DHT22;2393;50.560;12.636;2023-09-19T10:56:21;20.60;99.90
4759;DHT22;2393;50.560;12.636;2023-09-19T10:58:51;20.80;99.90
4759;DHT22;2393;50.560;12.636;2023-09-19T11:01:20;21.00;99.90
4759;DHT22;2393;50.560;12.636;2023-09-19T11:04:23;21.30;99.90
4759;DHT22;2393;50.560;12.636;2023-09-19T11:07:03;21.40;99.90
4759;DHT22;2393;50.560;12.636;2023-09-19T11:09:46;21.50;99.90
4759;DHT22;2393;50.560;12.636;2023-09-19T11:12:49;21.30;99.90
4759;DHT22;2393;50.560;12.636;2023-09-19T11:18:54;21.40;99.90
4759;DHT22;2393;50.560;12.636;2023-09-19T11:21:52;21.70;99.90
4759;DHT22;2393;50.560;12.636;2023-09-19T11:24:31;21.60;99.90
4759;DHT22;2393;50.560;12.636;2023-09-19T11:27:11;21.60;99.90
4759;DHT22;2393;50.560;12.636;2023-09-19T11:29:42;21.50;99.90
4759;DHT22;2393;50.560;12.636;2023-09-19T11:32:10;21.30;99.90
4759;DHT22;2393;50.560;12.636;2023-09-19T11:34:44;21.30;99.90
4759;DHT22;2393;50.560;12.636;2023-09-19T11:40:44;21.50;99.90
4759;DHT22;2393;50.560;12.636;2023-09-19T11:43:29;21.50;99.90
4759;DHT22;2393;50.560;12.636;2023-09-19T11:46:07;21.60;99.90
4759;DHT22;2393;50.560;12.636;2023-09-19T11:48:39;21.80;99.90
4759;DHT22;2393;50.560;12.636;2023-09-19T11:51:14;21.80;99.90
4759;DHT22;2393;50.560;12.636;2023-09-19T11:53:46;21.80;99.90
4759;DHT22;2393;50.560;12.636;2023-09-19T11:56:19;21.90;99.90
4759;DHT22;2393;50.560;12.636;2023-09-19T11:58:50;21.90;99.90
4759;DHT22;2393;50.560;12.636;2023-09-19T12:01:23;22.00;99.90
4759;DHT22;2393;50.560;12.636;2023-09-19T12:03:54;22.00;99.90
4759;DHT22;2393;50.560;12.636;2023-09-19T12:06:25;22.00;99.90
4759;DHT22;2393;50.560;12.636;2023-09-19T12:08:54;22.20;99.90
4759;DHT22;2393;50.560;12.636;2023-09-19T12:11:29;22.30;99.90
4759;DHT22;2393;50.560;12.636;2023-09-19T12:14:01;22.40;99.90
4759;DHT22;2393;50.560;12.636;2023-09-19T12:16:31;22.40;99.90
4759;DHT22;2393;50.560;12.636;2023-09-19T12:19:19;22.60;99.90
4759;DHT22;2393;50.560;12.636;2023-09-19T12:21:57;22.80;99.90
4759;DHT22;2393;50.560;12.636;2023-09-19T12:24:27;23.00;99.90
4759;DHT22;2393;50.560;12.636;2023-09-19T12:27:04;23.30;99.90
4759;DHT22;2393;50.560;12.636;2023-09-19T12:29:43;23.40;99.90
4759;DHT22;2393;50.560;12.636;2023-09-19T12:32:11;23.50;99.90
4759;DHT22;2393;50.560;12.636;2023-09-19T12:34:51;23.70;99.90
4759;DHT22;2393;50.560;12.636;2023-09-19T12:37:20;23.60;99.90
4759;DHT22;2393;50.560;12.636;2023-09-19T12:39:51;23.40;99.90
4759;DHT22;2393;50.560;12.636;2023-09-19T12:42:24;23.10;99.90
4759;DHT22;2393;50.560;12.636;2023-09-19T12:44:57;23.00;99.90
4759;DHT22;2393;50.560;12.636;2023-09-19T12:47:28;23.00;99.90
4759;DHT22;2393;50.560;12.636;2023-09-19T12:50:12;23.10;99.90
4759;DHT22;2393;50.560;12.636;2023-09-19T12:52:43;23.10;99.90
4759;DHT22;2393;50.560;12.636;2023-09-19T12:55:22;23.10;99.90
4759;DHT22;2393;50.560;12.636;2023-09-19T12:58:07;23.00;99.90
4759;DHT22;2393;50.560;12.636;2023-09-19T13:00:38;23.00;99.90
4759;DHT22;2393;50.560;12.636;2023-09-19T13:03:17;22.80;99.90
4759;DHT22;2393;50.560;12.636;2023-09-19T13:05:51;22.70;99.90
4759;DHT22;2393;50.560;12.636;2023-09-19T13:08:25;22.80;99.90
4759;DHT22;2393;50.560;12.636;2023-09-19T13:11:17;22.90;99.90
4759;DHT22;2393;50.560;12.636;2023-09-19T13:13:51;22.80;99.90
4759;DHT22;2393;50.560;12.636;2023-09-19T13:16:21;22.60;99.90
4759;DHT22;2393;50.560;12.636;2023-09-19T13:18:53;22.60;99.90
4759;DHT22;2393;50.560;12.636;2023-09-19T13:21:28;22.70;99.90
4759;DHT22;2393;50.560;12.636;2023-09-19T13:24:20;22.70;99.90
4759;DHT22;2393;50.560;12.636;2023-09-19T13:26:50;22.70;99.90
4759;DHT22;2393;50.560;12.636;2023-09-19T13:29:20;22.50;99.90
4759;DHT22;2393;50.560;12.636;2023-09-19T13:31:49;22.50;99.90
4759;DHT22;2393;50.560;12.636;2023-09-19T13:34:18;22.50;99.90
4759;DHT22;2393;50.560;12.636;2023-09-19T13:36:47;22.50;99.70
4759;DHT22;2393;50.560;12.636;2023-09-19T13:39:16;22.50;99.90
4759;DHT22;2393;50.560;12.636;2023-09-19T13:41:45;22.50;99.60
4759;DHT22;2393;50.560;12.636;2023-09-19T13:44:15;22.50;99.90
4759;DHT22;2393;50.560;12.636;2023-09-19T13:46:45;22.70;99.90
4759;DHT22;2393;50.560;12.636;2023-09-19T13:49:14;22.80;99.90
4759;DHT22;2393;50.560;12.636;2023-09-19T13:51:47;22.90;99.90
4759;DHT22;2393;50.560;12.636;2023-09-19T13:54:15;22.90;99.90
4759;DHT22;2393;50.560;12.636;2023-09-19T13:56:44;23.10;99.90
4759;DHT22;2393;50.560;12.636;2023-09-19T13:59:12;23.20;99.90
4759;DHT22;2393;50.560;12.636;2023-09-19T14:01:41;23.20;99.90
4759;DHT22;2393;50.560;12.636;2023-09-19T14:04:11;23.20;99.90
4759;DHT22;2393;50.560;12.636;2023-09-19T14:06:41;23.10;99.90
4759;DHT22;2393;50.560;12.636;2023-09-19T14:09:10;23.20;99.80
4759;DHT22;2393;50.560;12.636;2023-09-19T14:11:40;23.10;98.70
4759;DHT22;2393;50.560;12.636;2023-09-19T14:14:09;23.10;98.40
4759;DHT22;2393;50.560;12.636;2023-09-19T14:16:38;23.00;98.70
4759;DHT22;2393;50.560;12.636;2023-09-19T14:19:10;23.00;98.10
4759;DHT22;2393;50.560;12.636;2023-09-19T14:21:39;22.90;99.50
4759;DHT22;2393;50.560;12.636;2023-09-19T14:24:07;22.70;98.30
4759;DHT22;2393;50.560;12.636;2023-09-19T14:26:36;22.60;98.40
4759;DHT22;2393;50.560;12.636;2023-09-19T14:29:05;22.40;98.90
4759;DHT22;2393;50.560;12.636;2023-09-19T14:31:37;22.30;98.70
4759;DHT22;2393;50.560;12.636;2023-09-19T14:34:07;22.30;99.40
4759;DHT22;2393;50.560;12.636;2023-09-19T14:36:39;22.30;99.10
4759;DHT22;2393;50.560;12.636;2023-09-19T14:39:07;22.20;98.40
4759;DHT22;2393;50.560;12.636;2023-09-19T14:41:36;22.30;99.20
4759;DHT22;2393;50.560;12.636;2023-09-19T14:44:05;22.30;98.50
4759;DHT22;2393;50.560;12.636;2023-09-19T14:46:37;22.20;98.60
4759;DHT22;2393;50.560;12.636;2023-09-19T14:49:06;22.20;98.60
4759;DHT22;2393;50.560;12.636;2023-09-19T14:51:36;22.20;98.60
4759;DHT22;2393;50.560;12.636;2023-09-19T14:54:08;22.30;99.10
4759;DHT22;2393;50.560;12.636;2023-09-19T14:56:37;22.20;98.30
4759;DHT22;2393;50.560;12.636;2023-09-19T14:59:07;22.10;98.90
4759;DHT22;2393;50.560;12.636;2023-09-19T15:01:38;22.00;98.70
4759;DHT22;2393;50.560;12.636;2023-09-19T15:04:07;21.80;99.40
4759;DHT22;2393;50.560;12.636;2023-09-19T15:06:36;21.70;99.20
4759;DHT22;2393;50.560;12.636;2023-09-19T15:09:05;21.60;98.30
4759;DHT22;2393;50.560;12.636;2023-09-19T15:11:39;21.50;98.90
4759;DHT22;2393;50.560;12.636;2023-09-19T15:14:08;21.50;99.20
4759;DHT22;2393;50.560;12.636;2023-09-19T15:16:37;21.50;99.10
4759;DHT22;2393;50.560;12.636;2023-09-19T15:19:07;21.50;99.00
4759;DHT22;2393;50.560;12.636;2023-09-19T15:21:37;21.40;99.90
4759;DHT22;2393;50.560;12.636;2023-09-19T15:24:08;21.30;99.80
4759;DHT22;2393;50.560;12.636;2023-09-19T15:26:39;21.10;99.90
4759;DHT22;2393;50.560;12.636;2023-09-19T15:29:07;21.10;99.90
4759;DHT22;2393;50.560;12.636;2023-09-19T15:31:36;21.00;99.70
4759;DHT22;2393;50.560;12.636;2023-09-19T15:34:05;20.90;99.90
4759;DHT22;2393;50.560;12.636;2023-09-19T15:36:35;20.80;99.90
4759;DHT22;2393;50.560;12.636;2023-09-19T15:39:05;20.70;99.70
4759;DHT22;2393;50.560;12.636;2023-09-19T15:41:36;20.60;99.80
4759;DHT22;2393;50.560;12.636;2023-09-19T15:44:11;20.40;99.60
4759;DHT22;2393;50.560;12.636;2023-09-19T15:46:41;20.30;99.40
4759;DHT22;2393;50.560;12.636;2023-09-19T15:49:11;20.20;99.60
4759;DHT22;2393;50.560;12.636;2023-09-19T15:51:40;20.10;99.60
4759;DHT22;2393;50.560;12.636;2023-09-19T15:54:12;19.90;99.90
4759;DHT22;2393;50.560;12.636;2023-09-19T15:56:46;19.80;99.90
4759;DHT22;2393;50.560;12.636;2023-09-19T15:59:17;19.70;99.90
4759;DHT22;2393;50.560;12.636;2023-09-19T16:01:46;19.60;99.90
4759;DHT22;2393;50.560;12.636;2023-09-19T16:04:15;19.60;99.90
4759;DHT22;2393;50.560;12.636;2023-09-19T16:06:45;19.50;99.90
4759;DHT22;2393;50.560;12.636;2023-09-19T16:09:14;19.50;99.90
4759;DHT22;2393;50.560;12.636;2023-09-19T16:11:43;19.40;99.90
4759;DHT22;2393;50.560;12.636;2023-09-19T16:14:11;19.30;99.90
4759;DHT22;2393;50.560;12.636;2023-09-19T16:16:50;19.20;99.90
4759;DHT22;2393;50.560;12.636;2023-09-19T16:19:19;19.20;99.90